createdAt,value
2023-02-03T00:01:16.763Z,9.50
2023-02-03T00:03:44.759Z,9.60
2023-02-03T00:06:12.819Z,9.63
2023-02-03T00:08:40.971Z,8.63
2023-02-03T00:11:09.255Z,9.33
2023-02-03T00:13:37.671Z,8.90
2023-02-03T00:16:06.793Z,9.10
2023-02-03T00:18:36.151Z,8.67
2023-02-03T00:21:04.206Z,8.30
2023-02-03T00:23:33.008Z,7.57
2023-02-03T00:26:08.324Z,8.00
2023-02-03T00:28:36.329Z,8.93
2023-02-03T00:31:04.327Z,8.50
2023-02-03T00:33:33.747Z,7.87
2023-02-03T00:36:07.392Z,8.40
2023-02-03T00:38:35.319Z,7.93
2023-02-03T00:41:03.283Z,8.17
2023-02-03T00:43:31.555Z,8.20
2023-02-03T00:45:59.561Z,8.43
2023-02-03T00:48:27.610Z,8.50
2023-02-03T00:50:55.572Z,7.47
2023-02-03T00:53:24.852Z,7.83
2023-02-03T00:55:53.077Z,7.80
2023-02-03T00:58:21.066Z,7.33
2023-02-03T01:00:49.086Z,7.47
2023-02-03T01:03:18.100Z,7.47
2023-02-03T01:05:46.057Z,7.40
2023-02-03T01:08:14.982Z,7.73
2023-02-03T01:10:44.281Z,7.57
2023-02-03T01:13:12.236Z,7.10
2023-02-03T01:15:46.088Z,7.23
2023-02-03T01:18:14.181Z,7.03
2023-02-03T01:20:42.147Z,7.03
2023-02-03T01:23:10.067Z,7.17
2023-02-03T01:25:38.020Z,7.37
2023-02-03T01:28:07.590Z,7.60
2023-02-03T01:30:35.566Z,7.53
2023-02-03T01:33:03.602Z,7.50
2023-02-03T01:35:31.544Z,6.73
2023-02-03T01:37:59.607Z,7.27
2023-02-03T01:40:27.874Z,7.13
2023-02-03T01:42:56.071Z,7.40
2023-02-03T01:45:25.622Z,7.00
2023-02-03T01:47:59.703Z,7.33
2023-02-03T01:50:31.794Z,7.40
2023-02-03T01:53:03.398Z,7.87
2023-02-03T01:55:35.767Z,7.40
2023-02-03T01:58:08.140Z,7.60
2023-02-03T02:00:37.488Z,7.07
2023-02-03T02:03:07.049Z,7.83
2023-02-03T02:05:39.963Z,7.90
2023-02-03T02:08:09.892Z,7.50
2023-02-03T02:10:37.867Z,7.73
2023-02-03T02:13:07.040Z,8.07
2023-02-03T02:15:48.508Z,8.13
2023-02-03T02:18:29.843Z,8.03
2023-02-03T02:21:13.432Z,8.70
2023-02-03T02:24:06.618Z,8.47
2023-02-03T02:26:50.122Z,8.63
2023-02-03T02:29:42.499Z,8.20
2023-02-03T02:32:27.060Z,8.10
2023-02-03T02:35:03.901Z,7.77
2023-02-03T02:37:41.623Z,7.03
2023-02-03T02:40:20.766Z,7.60
2023-02-03T02:43:01.556Z,7.90
2023-02-03T02:45:38.369Z,7.77
2023-02-03T02:48:14.683Z,7.57
2023-02-03T02:50:47.136Z,7.37
2023-02-03T02:53:18.834Z,7.80
2023-02-03T02:55:47.911Z,7.53
2023-02-03T02:58:20.079Z,8.00
2023-02-03T03:00:48.431Z,7.17
2023-02-03T03:03:19.782Z,8.10
2023-02-03T03:05:52.985Z,8.27
2023-02-03T03:08:24.568Z,8.50
2023-02-03T03:10:54.762Z,9.50
2023-02-03T03:13:26.320Z,8.63
2023-02-03T03:15:55.879Z,8.53
2023-02-03T03:18:29.604Z,8.97
2023-02-03T03:21:06.019Z,9.30
2023-02-03T03:23:39.362Z,9.23
2023-02-03T03:26:12.975Z,9.27
2023-02-03T03:28:48.084Z,9.37
2023-02-03T03:31:17.266Z,8.87
2023-02-03T03:33:47.661Z,8.77
2023-02-03T03:36:23.338Z,9.40
2023-02-03T03:38:57.016Z,9.23
2023-02-03T03:41:32.445Z,8.87
2023-02-03T03:44:04.538Z,8.33
2023-02-03T03:46:41.140Z,7.60
2023-02-03T03:49:12.480Z,8.77
2023-02-03T03:51:45.421Z,7.67
2023-02-03T03:54:17.905Z,7.93
2023-02-03T03:56:51.481Z,7.20
2023-02-03T03:59:23.502Z,7.37
2023-02-03T04:01:53.273Z,7.60
2023-02-03T04:04:25.323Z,6.80
2023-02-03T04:06:54.873Z,7.23
2023-02-03T04:09:22.943Z,7.17
2023-02-03T04:12:03.131Z,6.83
2023-02-03T04:14:32.767Z,6.60
2023-02-03T04:17:01.055Z,7.47
2023-02-03T04:19:30.466Z,7.83
2023-02-03T04:21:58.514Z,8.00
2023-02-03T04:24:26.482Z,8.57
2023-02-03T04:26:54.443Z,8.40
2023-02-03T04:29:22.490Z,8.30
2023-02-03T04:31:50.524Z,8.07
2023-02-03T04:34:18.572Z,7.97
2023-02-03T04:36:47.855Z,8.30
2023-02-03T04:39:15.822Z,7.43
2023-02-03T04:41:43.760Z,8.00
2023-02-03T04:44:11.715Z,7.73
2023-02-03T04:46:39.656Z,7.97
2023-02-03T04:49:07.791Z,7.80
2023-02-03T04:51:35.706Z,7.50
2023-02-03T04:54:05.164Z,7.73
2023-02-03T04:56:33.110Z,7.50
2023-02-03T04:59:01.077Z,8.60
2023-02-03T05:01:28.997Z,8.20
2023-02-03T05:03:56.941Z,7.97
2023-02-03T05:06:26.270Z,8.93
2023-02-03T05:08:54.255Z,8.67
2023-02-03T05:11:23.945Z,9.03
2023-02-03T05:13:52.543Z,8.93
2023-02-03T05:16:20.600Z,9.57
2023-02-03T05:18:48.854Z,9.07
2023-02-03T05:21:17.011Z,9.87
2023-02-03T05:23:45.063Z,10.07
2023-02-03T05:26:13.299Z,11.33
2023-02-03T05:28:42.587Z,12.13
2023-02-03T05:31:10.592Z,11.83
2023-02-03T05:33:38.679Z,11.40
2023-02-03T05:36:07.167Z,11.50
2023-02-03T05:38:35.117Z,11.80
2023-02-03T05:41:20.739Z,12.23
2023-02-03T05:43:50.048Z,11.27
2023-02-03T05:46:18.084Z,12.83
2023-02-03T05:48:46.105Z,12.30
2023-02-03T05:51:14.389Z,12.13
2023-02-03T05:53:42.344Z,13.43
2023-02-03T05:56:10.875Z,12.70
2023-02-03T05:58:38.827Z,12.40
2023-02-03T06:01:08.118Z,13.37
2023-02-03T06:03:36.156Z,12.33
2023-02-03T06:06:04.605Z,12.70
2023-02-03T06:08:32.560Z,11.97
2023-02-03T06:11:01.062Z,12.80
2023-02-03T06:13:29.716Z,12.33
2023-02-03T06:15:58.794Z,13.07
2023-02-03T06:18:28.179Z,12.37
2023-02-03T06:20:56.600Z,12.20
2023-02-03T06:23:24.624Z,12.50
2023-02-03T06:25:53.009Z,12.67
2023-02-03T06:28:21.141Z,12.20
2023-02-03T06:30:52.121Z,12.27
2023-02-03T06:33:20.238Z,14.00
2023-02-03T06:35:49.657Z,12.53
2023-02-03T06:38:17.819Z,12.90
2023-02-03T06:40:48.017Z,13.47
2023-02-03T06:43:16.489Z,13.23
2023-02-03T06:45:47.503Z,12.27
2023-02-03T06:48:18.359Z,12.53
2023-02-03T06:50:48.759Z,13.03
2023-02-03T06:53:18.606Z,13.30
2023-02-03T06:55:48.103Z,12.87
2023-02-03T06:58:16.758Z,12.60
2023-02-03T07:00:44.764Z,12.77
2023-02-03T07:03:12.888Z,12.43
2023-02-03T07:05:41.372Z,12.50
2023-02-03T07:08:09.553Z,12.70
2023-02-03T07:10:39.040Z,11.33
2023-02-03T07:13:07.740Z,11.50
2023-02-03T07:15:36.142Z,11.30
2023-02-03T07:18:04.826Z,11.03
2023-02-03T07:20:33.557Z,11.43
2023-02-03T07:23:02.794Z,10.80
2023-02-03T07:25:32.022Z,12.13
2023-02-03T07:28:01.986Z,11.60
2023-02-03T07:30:30.792Z,11.10
2023-02-03T07:32:59.281Z,10.47
2023-02-03T07:35:30.510Z,10.53
2023-02-03T07:37:58.773Z,11.50
2023-02-03T07:40:27.178Z,11.37
2023-02-03T07:42:55.497Z,11.50
2023-02-03T07:45:25.606Z,11.10
2023-02-03T07:47:54.471Z,10.17
2023-02-03T07:50:22.948Z,10.07
2023-02-03T07:52:52.264Z,11.13
2023-02-03T07:55:20.275Z,10.17
2023-02-03T07:57:48.265Z,10.30
2023-02-03T08:00:17.887Z,10.07
2023-02-03T08:02:47.592Z,10.37
2023-02-03T08:05:16.833Z,11.20
2023-02-03T08:07:45.231Z,11.30
2023-02-03T08:10:15.781Z,11.03
2023-02-03T08:12:45.390Z,10.83
2023-02-03T08:15:14.443Z,10.33
2023-02-03T08:17:44.620Z,10.60
2023-02-03T08:20:14.445Z,10.93
2023-02-03T08:22:42.540Z,10.93
2023-02-03T08:25:11.250Z,11.80
2023-02-03T08:27:39.981Z,11.83
2023-02-03T08:30:10.915Z,12.10
2023-02-03T08:32:39.161Z,11.83
2023-02-03T08:35:08.351Z,11.80
2023-02-03T08:37:38.187Z,11.30
2023-02-03T08:40:08.059Z,10.67
2023-02-03T08:42:36.388Z,11.43
2023-02-03T08:45:05.334Z,12.27
2023-02-03T08:47:33.467Z,11.03
2023-02-03T08:50:01.623Z,10.57
2023-02-03T08:52:30.156Z,10.10
2023-02-03T08:54:59.623Z,10.00
2023-02-03T08:57:28.025Z,10.33
2023-02-03T08:59:56.923Z,10.73
2023-02-03T09:02:25.567Z,10.40
2023-02-03T09:04:54.004Z,11.60
2023-02-03T09:07:22.167Z,12.33
2023-02-03T09:09:50.125Z,11.80
2023-02-03T09:12:19.717Z,12.53
2023-02-03T09:14:47.700Z,12.03
2023-02-03T09:17:15.700Z,12.93
2023-02-03T09:19:43.719Z,11.47
2023-02-03T09:22:11.776Z,12.87
2023-02-03T09:24:40.077Z,11.73
2023-02-03T09:27:08.189Z,12.13
2023-02-03T09:29:37.950Z,12.57
2023-02-03T09:32:08.875Z,12.13
2023-02-03T09:34:37.422Z,13.30
2023-02-03T09:37:05.537Z,11.40
2023-02-03T09:39:33.587Z,12.40
2023-02-03T09:42:36.409Z,12.60
2023-02-03T09:45:14.079Z,12.63
2023-02-03T09:47:44.625Z,12.90
2023-02-03T09:50:19.900Z,12.20
2023-02-03T09:52:48.372Z,12.90
2023-02-03T09:55:35.092Z,12.43
2023-02-03T09:58:06.791Z,12.13
2023-02-03T10:00:41.450Z,11.00
2023-02-03T10:03:15.756Z,11.40
2023-02-03T10:06:03.604Z,15.93
2023-02-03T10:08:45.044Z,12.53
2023-02-03T10:11:22.620Z,13.10
2023-02-03T10:13:59.412Z,11.60
2023-02-03T10:16:43.914Z,11.73
2023-02-03T10:19:17.683Z,11.33
2023-02-03T10:21:50.115Z,10.80
2023-02-03T10:24:23.711Z,11.63
2023-02-03T10:26:53.504Z,12.07
2023-02-03T10:29:25.095Z,12.37
2023-02-03T10:31:58.656Z,14.17
2023-02-03T10:34:27.523Z,13.10
2023-02-03T10:36:57.814Z,12.77
2023-02-03T10:39:33.565Z,12.33
2023-02-03T10:42:02.839Z,12.00
2023-02-03T10:44:37.279Z,11.37
2023-02-03T10:47:22.199Z,10.67
2023-02-03T10:49:53.163Z,10.60
2023-02-03T10:52:32.569Z,10.53
2023-02-03T10:55:00.667Z,9.50
2023-02-03T10:57:31.195Z,8.57
2023-02-03T11:00:09.048Z,9.87
2023-02-03T11:02:38.690Z,9.83
2023-02-03T11:05:21.090Z,10.30
2023-02-03T11:07:49.815Z,10.17
2023-02-03T11:10:35.944Z,9.63
2023-02-03T11:13:19.368Z,9.53
2023-02-03T11:15:55.015Z,8.70
2023-02-03T11:18:40.425Z,9.90
2023-02-03T11:21:14.534Z,8.23
2023-02-03T11:23:50.020Z,9.27
2023-02-03T11:26:23.180Z,9.07
2023-02-03T11:28:53.482Z,9.00
2023-02-03T11:31:24.744Z,9.87
2023-02-03T11:34:01.300Z,10.20
2023-02-03T11:36:31.806Z,9.37
2023-02-03T11:39:18.568Z,8.27
2023-02-03T11:41:50.404Z,9.83
2023-02-03T11:44:22.147Z,9.63
2023-02-03T11:46:54.306Z,9.90
2023-02-03T11:49:45.220Z,10.23
2023-02-03T11:52:38.740Z,8.90
2023-02-03T11:55:17.411Z,9.90
2023-02-03T11:57:52.226Z,9.80
2023-02-03T12:00:33.596Z,9.90
2023-02-03T12:03:18.090Z,10.43
2023-02-03T12:06:03.046Z,10.53
2023-02-03T12:08:43.557Z,10.53
2023-02-03T12:11:19.302Z,10.67
2023-02-03T12:14:04.630Z,11.07
2023-02-03T12:17:05.590Z,11.47
2023-02-03T12:19:46.761Z,11.87
2023-02-03T12:22:25.234Z,11.70
2023-02-03T12:25:01.062Z,12.33
2023-02-03T12:27:43.906Z,11.23
2023-02-03T12:30:18.339Z,11.70
2023-02-03T12:32:52.661Z,11.53
2023-02-03T12:35:26.503Z,11.87
2023-02-03T12:38:00.180Z,11.60
2023-02-03T12:40:37.305Z,12.77
2023-02-03T12:43:21.060Z,11.93
2023-02-03T12:45:54.389Z,11.43
2023-02-03T12:48:28.248Z,10.87
2023-02-03T12:51:01.819Z,11.43
2023-02-03T12:53:34.935Z,11.93
2023-02-03T12:56:10.995Z,12.37
2023-02-03T12:58:43.807Z,12.00
2023-02-03T13:01:17.877Z,11.53
2023-02-03T13:03:51.600Z,13.70
2023-02-03T13:06:26.185Z,14.70
2023-02-03T13:09:03.854Z,13.90
2023-02-03T13:11:40.813Z,15.43
2023-02-03T13:14:16.786Z,13.17
2023-02-03T13:16:53.141Z,15.07
2023-02-03T13:19:25.556Z,14.10
2023-02-03T13:21:57.983Z,13.20
2023-02-03T13:24:28.878Z,12.20
2023-02-03T13:27:15.203Z,11.27
2023-02-03T13:29:58.265Z,9.73
2023-02-03T13:32:42.589Z,10.00
2023-02-03T13:35:43.839Z,9.27
2023-02-03T13:38:36.990Z,9.37
2023-02-03T13:41:11.881Z,10.13
2023-02-03T13:43:47.433Z,10.00
2023-02-03T13:46:22.974Z,10.83
2023-02-03T13:48:55.315Z,9.70
2023-02-03T13:51:29.152Z,9.97
2023-02-03T13:54:03.153Z,10.07
2023-02-03T13:56:33.868Z,10.63
2023-02-03T13:59:05.117Z,9.60
2023-02-03T14:01:38.846Z,8.03
2023-02-03T14:04:09.221Z,8.43
2023-02-03T14:07:02.371Z,8.50
2023-02-03T14:09:47.079Z,9.77
2023-02-03T14:12:35.815Z,9.33
2023-02-03T14:15:24.263Z,9.43
2023-02-03T14:17:58.514Z,9.03
2023-02-03T14:21:11.382Z,8.83
2023-02-03T14:23:50.490Z,8.90
2023-02-03T14:26:39.363Z,8.67
2023-02-03T14:29:11.084Z,10.20
2023-02-03T14:31:57.939Z,9.57
2023-02-03T14:34:34.155Z,9.70
2023-02-03T14:37:19.577Z,9.10
2023-02-03T14:40:15.159Z,8.20
2023-02-03T14:43:12.062Z,9.33
2023-02-03T14:46:07.806Z,10.07
2023-02-03T14:48:56.788Z,9.50
2023-02-03T14:51:46.561Z,12.03
2023-02-03T14:54:32.351Z,11.43
2023-02-03T14:57:19.875Z,10.73
2023-02-03T14:59:58.671Z,9.33
2023-02-03T15:02:31.136Z,10.77
2023-02-03T15:05:29.745Z,10.90
2023-02-03T15:07:58.038Z,12.87
2023-02-03T15:10:31.723Z,12.77
2023-02-03T15:13:00.136Z,14.77
2023-02-03T15:15:31.059Z,16.00
2023-02-03T15:18:20.721Z,17.00
2023-02-03T15:20:53.398Z,20.80
2023-02-03T15:23:24.001Z,17.33
2023-02-03T15:25:56.257Z,20.63
2023-02-03T15:28:26.349Z,22.10
2023-02-03T15:30:58.924Z,21.20
2023-02-03T15:33:31.340Z,17.50
2023-02-03T15:36:04.734Z,17.70
2023-02-03T15:38:37.007Z,19.07
2023-02-03T15:41:08.934Z,18.27
2023-02-03T15:43:39.724Z,18.67
2023-02-03T15:46:13.108Z,16.20
2023-02-03T15:48:45.475Z,15.80
2023-02-03T15:51:17.021Z,13.93
2023-02-03T15:53:49.977Z,14.47
2023-02-03T15:56:30.549Z,13.83
2023-02-03T15:58:59.587Z,15.47
2023-02-03T16:01:28.216Z,16.17
2023-02-03T16:03:59.645Z,15.60
2023-02-03T16:06:35.720Z,15.23
2023-02-03T16:09:04.530Z,15.47
2023-02-03T16:11:34.978Z,15.83
2023-02-03T16:14:06.773Z,16.53
2023-02-03T16:16:38.908Z,17.43
2023-02-03T16:19:14.699Z,17.53
2023-02-03T16:21:55.154Z,18.70
2023-02-03T16:24:40.985Z,19.87
2023-02-03T16:27:32.127Z,19.00
2023-02-03T16:30:42.933Z,18.63
2023-02-03T16:33:34.248Z,18.13
2023-02-03T16:36:29.565Z,19.30
2023-02-03T16:39:16.377Z,17.77
2023-02-03T16:42:01.838Z,15.73
2023-02-03T16:44:47.337Z,15.33
2023-02-03T16:47:42.695Z,15.00
2023-02-03T16:50:38.165Z,16.57
2023-02-03T16:53:13.103Z,16.90
2023-02-03T16:55:41.374Z,15.23
2023-02-03T16:58:09.688Z,15.97
2023-02-03T17:00:41.375Z,17.90
2023-02-03T17:03:09.508Z,17.10
2023-02-03T17:05:38.199Z,17.80
2023-02-03T17:08:06.290Z,18.43
2023-02-03T17:10:36.337Z,18.00
2023-02-03T17:13:04.837Z,17.33
2023-02-03T17:15:33.212Z,16.87
2023-02-03T17:18:01.190Z,16.87
2023-02-03T17:20:29.210Z,17.40
2023-02-03T17:22:57.183Z,18.97
2023-02-03T17:25:25.248Z,18.73
2023-02-03T17:27:54.644Z,16.23
2023-02-03T17:30:22.932Z,18.77
2023-02-03T17:32:51.260Z,18.20
2023-02-03T17:35:19.296Z,18.60
2023-02-03T17:37:47.247Z,19.17
2023-02-03T17:54:07.514Z,20.30
2023-02-03T17:56:36.530Z,20.97
2023-02-03T17:59:06.932Z,18.80
2023-02-03T18:01:34.891Z,18.20
2023-02-03T18:04:04.654Z,14.50
2023-02-03T18:06:35.160Z,14.37
2023-02-03T18:09:03.612Z,15.10
2023-02-03T18:11:33.059Z,15.90
2023-02-03T18:14:01.580Z,16.23
2023-02-03T18:16:33.522Z,18.10
2023-02-03T18:19:04.260Z,17.93
2023-02-03T18:21:33.372Z,18.17
2023-02-03T18:24:02.000Z,18.87
2023-02-03T18:26:32.905Z,17.90
2023-02-03T18:29:00.962Z,17.10
2023-02-03T18:31:30.457Z,15.83
2023-02-03T18:34:02.764Z,17.27
2023-02-03T18:36:30.792Z,16.10
2023-02-03T18:38:59.191Z,16.27
2023-02-03T18:41:27.696Z,16.83
2023-02-03T18:43:55.992Z,17.90
2023-02-03T18:46:25.978Z,17.13
2023-02-03T18:48:56.158Z,17.63
2023-02-03T18:51:26.169Z,18.13
2023-02-03T18:53:57.977Z,16.10
2023-02-03T18:56:34.828Z,16.67
2023-02-03T18:59:05.730Z,17.00
2023-02-03T19:01:35.208Z,18.83
2023-02-03T19:04:04.891Z,17.10
2023-02-03T19:06:34.699Z,15.87
2023-02-03T19:09:03.290Z,15.63
2023-02-03T19:11:31.250Z,16.00
2023-02-03T19:13:59.181Z,15.53
2023-02-03T19:16:27.180Z,16.00
2023-02-03T19:18:55.138Z,16.10
2023-02-03T19:21:24.404Z,15.80
2023-02-03T19:23:52.472Z,15.53
2023-02-03T19:26:20.425Z,17.30
2023-02-03T19:28:48.458Z,16.00
2023-02-03T19:31:16.846Z,15.97
2023-02-03T19:33:44.956Z,15.73
2023-02-03T19:36:13.794Z,15.80
2023-02-03T19:38:43.141Z,15.73
2023-02-03T19:41:11.763Z,14.97
2023-02-03T19:43:40.466Z,16.33
2023-02-03T19:46:08.528Z,16.93
2023-02-03T19:48:37.040Z,16.63
2023-02-03T19:51:05.281Z,16.00
2023-02-03T19:53:33.388Z,16.87
2023-02-03T19:56:02.852Z,18.33
2023-02-03T19:58:31.662Z,15.77
2023-02-03T20:00:59.633Z,17.17
2023-02-03T20:03:27.605Z,20.17
2023-02-03T20:05:55.544Z,15.83
2023-02-03T20:08:23.491Z,15.70
2023-02-03T20:10:52.429Z,16.00
2023-02-03T20:13:21.826Z,14.03
2023-02-03T20:15:49.810Z,14.47
2023-02-03T20:18:17.782Z,14.67
2023-02-03T20:20:45.760Z,14.33
2023-02-03T20:23:13.708Z,14.80
2023-02-03T20:25:42.707Z,14.40
2023-02-03T20:28:10.992Z,13.77
2023-02-03T20:30:40.866Z,14.17
2023-02-03T20:33:08.935Z,14.93
2023-02-03T20:35:38.350Z,15.07
2023-02-03T20:38:06.567Z,14.77
2023-02-03T20:40:34.499Z,15.07
2023-02-03T20:43:07.965Z,14.33
2023-02-03T20:45:37.583Z,14.20
2023-02-03T20:48:09.990Z,13.63
2023-02-03T20:50:42.660Z,14.17
2023-02-03T20:53:15.026Z,14.90
2023-02-03T20:55:43.110Z,13.87
2023-02-03T20:58:18.328Z,14.20
2023-02-03T21:00:46.709Z,14.40
2023-02-03T21:03:35.253Z,14.13
2023-02-03T21:06:04.915Z,15.00
2023-02-03T21:08:33.901Z,14.93
2023-02-03T21:11:01.891Z,13.80
2023-02-03T21:13:34.483Z,14.17
2023-02-03T21:16:03.549Z,12.93
2023-02-03T21:18:39.568Z,14.37
2023-02-03T21:21:14.907Z,13.00
2023-02-03T21:23:47.310Z,13.87
2023-02-03T21:26:21.420Z,13.43
2023-02-03T21:28:51.513Z,11.63
2023-02-03T21:31:25.666Z,12.43
2023-02-03T21:33:56.448Z,13.07
2023-02-03T21:36:26.223Z,13.10
2023-02-03T21:38:55.692Z,11.83
2023-02-03T21:41:25.317Z,11.20
2023-02-03T21:43:54.835Z,10.53
2023-02-03T21:46:26.772Z,11.77
2023-02-03T21:49:00.032Z,10.70
2023-02-03T21:51:30.473Z,12.07
2023-02-03T21:54:00.599Z,10.90
2023-02-03T21:56:31.322Z,10.73
2023-02-03T21:59:00.188Z,11.00
2023-02-03T22:01:33.304Z,12.10
2023-02-03T22:04:04.045Z,11.50
2023-02-03T22:06:42.308Z,11.83
2023-02-03T22:09:12.221Z,10.07
2023-02-03T22:11:40.297Z,10.83
2023-02-03T22:14:08.358Z,9.63
2023-02-03T22:16:36.428Z,9.93
2023-02-03T22:19:06.023Z,9.33
2023-02-03T22:21:34.003Z,9.60
2023-02-03T22:24:02.045Z,11.03
2023-02-03T22:26:30.128Z,9.93
2023-02-03T22:28:58.081Z,9.50
2023-02-03T22:31:26.145Z,10.43
2023-02-03T22:33:54.181Z,10.23
2023-02-03T22:36:23.609Z,10.13
2023-02-03T22:38:52.487Z,9.73
2023-02-03T22:41:20.946Z,9.83
2023-02-03T22:43:48.979Z,9.93
2023-02-03T22:46:17.001Z,9.23
2023-02-03T22:48:44.956Z,9.83
2023-02-03T22:51:12.874Z,9.97
2023-02-03T22:53:42.164Z,9.80
2023-02-03T22:56:10.121Z,9.63
2023-02-03T22:58:38.090Z,9.53
2023-02-03T23:01:06.416Z,9.73
2023-02-03T23:03:34.437Z,8.60
2023-02-03T23:06:02.466Z,9.67
2023-02-03T23:08:30.425Z,9.87
2023-02-03T23:10:59.747Z,9.53
2023-02-03T23:13:28.200Z,9.23
2023-02-03T23:15:56.273Z,8.67
2023-02-03T23:18:24.260Z,9.03
2023-02-03T23:20:52.325Z,9.70
2023-02-03T23:23:20.301Z,8.70
2023-02-03T23:25:48.220Z,8.70
2023-02-03T23:28:17.584Z,8.80
2023-02-03T23:30:45.690Z,7.70
2023-02-03T23:33:13.715Z,8.70
2023-02-03T23:35:46.721Z,8.77
2023-02-03T23:38:15.673Z,9.30
2023-02-03T23:40:43.988Z,8.37
2023-02-03T23:43:11.949Z,9.57
2023-02-03T23:45:41.863Z,10.40
2023-02-03T23:48:10.044Z,9.27
2023-02-03T23:50:37.967Z,9.90
2023-02-03T23:53:06.253Z,9.33
2023-02-03T23:55:36.296Z,9.13
2023-02-03T23:58:05.026Z,8.23
